Blue River Lodge, Nebraska
Current Conditions -  °F | °C
As of 5:54 AM on Friday 21 Nov 2014 (Local Time) from KLNK Reporting Station
Clear Clear  
Wind Chill: 20°   Ceiling: Unl
Heat Index: 20°   Visibility: 8mi
Dew Point: 15°   Wind: 3mph
Humidity: 81%   Direction: 230°SW
Pressure: 30.2"   Gusts: NA
Location:  40.5918°N, 96.9749°W
Report Text: KLNK 211154Z 23003KT 8SM CLR M07/M09 A3020 RMK AO2 SLP245 T10671094 11050 21078 56012
Loading
Personal Weather Stations






























Interactive Weather Map New forecast layout! Learn more

10-Day Weather Forecast

Advertisements
Track Severe Weather on mobile